Extreme weather reports worldwide

Thunderstorm

Station
 
Location
 
Name
 
Wind
Knots
Gust
Knots
Vis
SM
Temp/Dew
C
Baro
inHg
METAR
 
ACP OITM Maragheh, IR Sahand Airport 19 33 4.97 16/7 29.97 OITM 071000Z 27019G33KT 8000 TSRA SCT035CB BKN170 16/07 Q1015
SOP KSOP Pinehurst/Southern Pines, US Moore County Airport 9 15 3 12/10 29.88 KSOP 071021Z AUTO 04009G15KT 3SM +TSRA BR FEW006 BKN021 OVC031 12/10 A2988 RMK AO2 LTG DSNT W AND NW P0048
TBZ OITT Tabriz, IR Tabriz International Airport 27 6.21 15/9 29.97 OITT 071030Z 24027KT 9999 TSRA FEW030TCU BKN032CB SCT080 15/09 Q1015 A2998
KGL HRYR Kigali, RW Kigali International Airport 17 4.97 18/15 30.18 HRYR 071000Z 09017KT 8000 -TSRA FEW023CB BKN025 18/15 Q1022 NOSIG
ATQ VIAR Amritsar, IN Sri Guru Ram Dass Jee International Airport 13 1.55 27/18 29.79 VIAR 071030Z 26013KT 2500 TSRA SCT030 FEW035CB BKN090 27/18 Q1009 TEMPO 32015G30KT 1500 TSRA

Station
 
Location
 
Name
 
Wind
Knots
Gust
Knots
Vis
SM
Temp/Dew
C
Baro
inHg
METAR
 
ISB OPIS Islamabad, PK Islamabad International Airport 13 3.73 30/14 29.82 OPIS 071025Z 18013KT 6000 VCTS FEW030CB SCT100 30/14 Q1010
EVN UDYZ Yerevan, AM Zvartnots International Airport 12 3.73 15/11 29.97 UDYZ 071030Z 05012KT 6000 -TSRA BKN036CB 15/11 Q1015 R09/290060 NOSIG
QPG WSAP SG Paya Lebar Air Base 10 6.21 31/24 29.73 WSAP 071015Z 05010KT 9999 VCTS FEW016CB BKN300 31/24 Q1007
AJI LTCO TR Ağrı Airport 9 6.21 14/8 30.03 LTCO 070950Z 04009KT 9999 TS FEW030CB BKN035 14/08 Q1017 RETSRA
BKI WBKK Kota Kinabalu, MY Kota Kinabalu International Airport 9 3.11 26/25 29.79 WBKK 071030Z 19009KT 5000 TSRA FEW013 FEW016CB SCT030 26/25 Q1009 NOSIG
TRV VOTV Thiruvananthapuram, IN Trivandrum International Airport 8 0.5 27/26 29.76 VOTV 071030Z 06008KT 0800 +TSRA SCT010 FEW025CB OVC080 27/26 Q1008 NOSIG
IXA VEAT Agartala, IN Agartala Airport 8 1.55 25/22 29.82 VEAT 071030Z 15008KT 2500 -TSRA SCT018 FEW030CB BKN100 25/22 Q1010 BECMG 3000 -RA
SZB WMSA Subang, MY Sultan Abdul Aziz Shah International Airport 8 6.21 29/24 29.73 WMSA 071000Z 27008KT 230V320 9999 3000NW -TSRA FEW016CB SCT023 29/24 Q1007
YKO LTCW Hakkari, TR Hakkari Yüksekova Airport 7 5.59 12/10 30.03 LTCW 070950Z 11007KT 9000 -TSRA FEW030CB BKN035 12/10 Q1017
BWN WBSB Bandar Seri Begawan, BN Brunei International Airport 7 5.59 27/27 29.79 WBSB 071030Z 21007KT 9000 -TSRA SCT014 FEW015CB BKN150 27/27 Q1009 TEMPO 5000 -TSRA
KBV VTSG Krabi, TH Krabi Airport 7 5.59 26/25 29.76 VTSG 071000Z 16007KT 130V190 9000 4000S -TSRA FEW016CB SCT020 BKN100 26/25 Q1008 NOSIG
KVUJ Albemarle, US Stanly County Airport 6 10 11/11 29.91 KVUJ 071035Z AUTO 05006KT 10SM -TSRA SCT050 BKN070 OVC080 12/11 A2991 RMK AO2 LTG DSNT W THRU NE T01180111
VOBM 6 4.97 29/19 29.91 VOBM 071000Z 25006KT 8000 TS SCT015 SCT020 FEW025CB BKN080 29/19 Q1013
FBG KFBG Fort Bragg, US Simmons Army Air Field 6 10 12/11 29.84 KFBG 071034Z AUTO 01006KT 10SM VCTS -RA FEW006 BKN027 BKN095 OVC120 12/11 A2984 RMK AO2 RAB34 CIG 027V095 BKN027 V SCT SLP107 $
HFF KHFF Camp Mackall, US Mackall Army Air Field 5 10 13/11 29.86 KHFF 071029Z AUTO 03005KT 10SM TS OVC015 13/11 A2986 RMK AO2 TSE03TSB29 CIG 010V015 SLP126 $
SWY WMBA Sitiawan, MY Sitiawan Airport 5 6.21 32/26 29.70 WMBA 071000Z 21005KT 120V270 9999 TS FEW017CB 32/26 Q1006
POB KPOB Fayetteville, US Pope Field 5 10 12/11 29.86 KPOB 071032Z AUTO 05005KT 10SM TS -DZ FEW014 OVC027 12/11 A2986 RMK AO2 DZB32 TSB23 OVC V BKN CIG 026 RWY23 SLP114 $
SUM KSMS Sumter, US Sumter Airport 4 10 13/10 29.86 KSMS 071035Z AUTO 24004KT 10SM VCTS DZ CLR 13/10 A2986 RMK AO2 LTG DSNT NE
KDCM Chester, US Chester Catawba Regional Airport 4 10 10/10 29.88 KDCM 071035Z AUTO 31004KT 10SM VCTS CLR 10/10 A2988 RMK AO2 LTG DSNT NE
IXW VEJS Jamshedpur, IN Sonari Airport 4 2.17 31/22 29.70 VEJS 071000Z 25004KT 3500 TS SCT020 SCT025 FEW030CB BKN100 31/22 Q1006
BSG FGBT GQ Bata Airport 4 4.97 27/25 29.94 FGBT 071000Z 18004KT 8000 TS SCT008 FEW020CB 27/25 Q1014
BGF FEFF Bangui, CF Bangui M'Poko International Airport 3 3.73 24/23 29.94 FEFF 071000Z 30003KT 6000 -TSRA BKN013 FEW033CB 24/23 Q1014 TEMPO 2000 +TSRA
DAN KDAN Danville, US Danville Regional Airport 3 10 9/7 29.88 KDAN 071037Z AUTO VRB03KT 10SM -TSRA BKN046 OVC065 09/07 A2988 RMK AO2 RAB32 TSB31 P0000 T00940072
TGG WMKN Kuala Terengganu, MY Sultan Mahmud Airport 3 6.21 28/25 29.79 WMKN 071000Z VRB03KT 9999 -TSRA FEW010 FEW017CB SCT020 28/25 Q1009
LBU WBKL Labuan, MY Labuan Airport 2 6.21 27/26 29.76 WBKL 071000Z VRB02KT 9999 -TSRA FEW012 FEW016CB SCT035 27/26 Q1008
BTN KBBP Bennettsville, US Marlboro County Jetport H.E. Avent Field 0 10 15/13 29.84 KBBP 071035Z AUTO 00000KT 10SM TS OVC012 15/13 A2984 RMK AO2 LTG DSNT NW
HCW KCQW Cheraw, US Cheraw Municipal Airport/Lynch Bellinger Field 0 10 14/12 29.84 KCQW 071035Z AUTO 00000KT 10SM VCTS BKN011 OVC016 14/12 A2984 RMK AO2 LTG DSNT N AND NE
CDN KCDN Camden, US Woodward Field 0 10 11/10 29.86 KCDN 071035Z AUTO 00000KT 10SM VCTS CLR 11/10 A2986 RMK AO2 LTG DSNT N
HVS KHVS Hartsville, US Hartsville Regional Airport 0 2 13/13 29.83 KHVS 071035Z AUTO 00000KT 2SM VCTS BR OVC003 13/13 A2983 RMK AO2 LTG DSNT NW-NE
BBT FEFT Berbérati, CF Berbérati Airport 0 6.21 25/22 30.03 FEFT 071000Z 00000KT 9999 TS FEW033CB 25/22 Q1017